Time;durP1;ratioP1;P1;durP2;ratioP2;P2;SDS_P1;SDS_P2;PMS_P1;PMS_P2;Temp;Humidity;BMP_temperature;BMP_pressure;BME280_temperature;BME280_humidity;BME280_pressure;Samples;Min_cycle;Max_cycle;Signal;HPM_P1;HPM_P2
2022/02/13 00:00:40;;;;;;;10.40;7.35;;;;;;;-2.57;100.00;96378.25;5094186;28;24434;-78
2022/02/13 00:03:08;;;;;;;12.60;8.13;;;;;;;-2.59;100.00;96387.56;5094075;28;24445;-77
2022/02/13 00:05:34;;;;;;;12.30;7.53;;;;;;;-2.62;100.00;96379.94;5094227;28;24426;-78
2022/02/13 00:08:01;;;;;;;12.02;8.00;;;;;;;-2.65;100.00;96374.03;5093565;28;24978;-77
2022/02/13 00:10:28;;;;;;;11.93;7.70;;;;;;;-2.56;100.00;96369.81;5093309;28;24524;-77
2022/02/13 00:12:54;;;;;;;14.43;8.27;;;;;;;-2.54;100.00;96360.50;5093389;28;24414;-77
2022/02/13 00:15:21;;;;;;;10.38;7.60;;;;;;;-2.43;100.00;96360.47;5093230;28;24490;-77
2022/02/13 00:17:47;;;;;;;10.43;6.88;;;;;;;-2.29;100.00;96358.72;5092501;28;24977;-77
2022/02/13 00:20:15;;;;;;;15.93;7.30;;;;;;;-2.18;100.00;96368.84;5093563;28;24421;-78
2022/02/13 00:22:42;;;;;;;8.50;6.45;;;;;;;-2.16;100.00;96368.84;5093303;28;24430;-77
2022/02/13 00:27:58;;;;;;;12.57;5.97;;;;;;;-2.24;100.00;96364.63;5105438;28;24485;-77
2022/02/13 00:30:46;;;;;;;7.43;5.93;;;;;;;-2.23;100.00;96360.38;5071746;28;24513;-77
2022/02/13 00:40:29;;;;;;;10.18;6.50;;;;;;;-2.46;100.00;96348.63;5047485;28;24432;-77
2022/02/13 00:46:47;;;;;;;7.80;6.18;;;;;;;-2.35;100.00;96335.06;5104610;28;24443;-77
2022/02/13 00:53:29;;;;;;;10.10;6.75;;;;;;;-2.74;100.00;96339.41;5066358;28;24498;-77
2022/02/13 00:56:06;;;;;;;11.73;7.15;;;;;;;-2.88;100.00;96334.34;5105367;28;24501;-80
2022/02/13 00:58:35;;;;;;;10.98;7.57;;;;;;;-2.83;100.00;96334.34;5103428;28;24425;-77
2022/02/13 01:01:01;;;;;;;9.35;6.97;;;;;;;-2.94;100.00;96334.34;5103634;28;24433;-77
2022/02/13 01:03:28;;;;;;;9.27;6.63;;;;;;;-2.93;100.00;96331.84;5102628;28;24458;-80
2022/02/13 01:05:55;;;;;;;10.90;6.70;;;;;;;-2.96;100.00;96331.84;5102116;28;24437;-79
2022/02/13 01:08:22;;;;;;;9.68;6.78;;;;;;;-2.96;100.00;96328.47;5100992;28;24965;-79
2022/02/13 01:10:48;;;;;;;12.07;7.17;;;;;;;-2.98;100.00;96328.44;5094283;28;24932;-80
2022/02/13 01:13:16;;;;;;;8.48;6.70;;;;;;;-2.98;100.00;96320.84;5093633;28;24768;-80
2022/02/13 01:15:43;;;;;;;14.00;7.22;;;;;;;-2.99;100.00;96331.84;5093611;28;24429;-80
2022/02/13 01:18:09;;;;;;;9.88;6.85;;;;;;;-2.94;100.00;96327.59;5093624;28;24434;-77
2022/02/13 01:20:36;;;;;;;7.40;5.95;;;;;;;-2.75;100.00;96333.47;5091252;28;24792;-77
2022/02/13 01:23:03;;;;;;;8.30;6.70;;;;;;;-2.89;100.00;96322.53;5091141;28;24439;-77
2022/02/13 01:25:29;;;;;;;10.15;7.22;;;;;;;-2.93;100.00;96333.50;5091235;28;24794;-77
2022/02/13 01:27:56;;;;;;;9.35;7.00;;;;;;;-2.98;100.00;96332.66;5090707;28;24433;-77
2022/02/13 01:30:24;;;;;;;8.77;7.07;;;;;;;-2.98;100.00;96323.38;5090944;28;24419;-78
2022/02/13 01:32:50;;;;;;;10.85;6.50;;;;;;;-2.99;100.00;96324.22;5091178;28;24414;-76
2022/02/13 01:35:16;;;;;;;8.80;6.53;;;;;;;-2.96;100.00;96321.69;5092944;28;24434;-79
2022/02/13 01:37:43;;;;;;;8.60;6.40;;;;;;;-3.01;100.00;96320.84;5091683;28;24463;-78
2022/02/13 01:40:10;;;;;;;9.05;6.72;;;;;;;-3.00;100.00;96316.63;5090901;28;24422;-77
2022/02/13 01:42:37;;;;;;;8.98;6.45;;;;;;;-2.92;100.00;96310.69;5090746;28;24935;-77
2022/02/13 01:45:04;;;;;;;9.15;6.90;;;;;;;-2.92;100.00;96310.69;5090451;28;25045;-77
2022/02/13 01:47:34;;;;;;;12.73;6.85;;;;;;;-2.79;100.00;96311.50;5091099;28;24422;-77
2022/02/13 01:50:01;;;;;;;7.97;6.97;;;;;;;-2.80;100.00;96309.84;5091390;28;24433;-77
2022/02/13 01:52:28;;;;;;;11.20;6.95;;;;;;;-2.83;100.00;96302.22;5090548;28;24422;-77
2022/02/13 01:54:55;;;;;;;8.60;6.60;;;;;;;-2.76;100.00;96308.97;5097997;28;24973;-76
2022/02/13 01:57:22;;;;;;;9.68;6.72;;;;;;;-2.80;100.00;96309.84;5100332;28;24430;-80
2022/02/13 01:59:49;;;;;;;10.52;6.60;;;;;;;-2.85;100.00;96306.47;5099888;28;24434;-77
2022/02/13 02:02:15;;;;;;;10.48;6.85;;;;;;;-3.00;100.00;96299.75;5098753;28;24422;-80
2022/02/13 02:04:43;;;;;;;7.45;6.45;;;;;;;-2.96;100.00;96298.88;5096828;28;24465;-80
2022/02/13 02:07:10;;;;;;;8.95;6.25;;;;;;;-2.87;100.00;96305.63;5097339;28;24437;-79
2022/02/13 02:09:36;;;;;;;8.88;6.07;;;;;;;-2.87;100.00;96309.84;5097964;28;24434;-76
2022/02/13 02:12:04;;;;;;;7.22;6.05;;;;;;;-2.77;100.00;96304.75;5097468;28;24429;-77
2022/02/13 02:14:30;;;;;;;8.02;6.30;;;;;;;-2.76;100.00;96303.91;5098008;28;24879;-76
2022/02/13 02:16:57;;;;;;;7.45;5.90;;;;;;;-2.63;100.00;96306.41;5097771;28;24772;-77
2022/02/13 02:19:24;;;;;;;7.03;5.82;;;;;;;-2.58;100.00;96302.19;5102183;28;24410;-79
2022/02/13 02:21:51;;;;;;;6.57;5.57;;;;;;;-2.50;100.00;96303.00;5102663;28;24421;-77
2022/02/13 02:24:19;;;;;;;11.40;5.45;;;;;;;-2.50;100.00;96296.22;5102571;28;24883;-77
2022/02/13 02:26:47;;;;;;;7.60;5.55;;;;;;;-2.61;100.00;96292.03;5102961;28;24434;-77
2022/02/13 02:29:14;;;;;;;9.27;6.00;;;;;;;-2.49;100.00;96300.44;5103453;28;24449;-78
2022/02/13 02:31:41;;;;;;;9.27;5.63;;;;;;;-2.36;100.00;96301.25;5104384;28;24433;-77
2022/02/13 02:34:07;;;;;;;9.23;6.03;;;;;;;-2.22;100.00;96294.44;5104496;28;24422;-77
2022/02/13 02:36:36;;;;;;;7.80;5.43;;;;;;;-2.18;100.00;96287.66;5105546;28;24438;-77
2022/02/13 02:46:10;;;;;;;8.45;5.30;;;;;;;-2.44;100.00;96283.53;5048099;28;24567;-77
2022/02/13 03:11:57;;;;;;;9.73;5.45;;;;;;;-2.42;100.00;96272.53;5088982;28;24482;-79
2022/02/13 03:14:57;;;;;;;7.35;5.70;;;;;;;-2.45;100.00;96264.09;5087282;28;24533;-77
2022/02/13 03:17:28;;;;;;;8.45;6.10;;;;;;;-2.37;100.00;96261.53;5087994;28;24442;-77
2022/02/13 03:49:01;;;;;;;10.00;6.20;;;;;;;-2.49;100.00;96242.09;4900253;29;24440;-77
2022/02/13 03:51:33;;;;;;;8.45;6.25;;;;;;;-2.55;100.00;96243.84;4889543;29;24464;-77
2022/02/13 03:57:44;;;;;;;7.53;5.63;;;;;;;-2.70;100.00;96255.72;4977131;28;24440;-80
2022/02/13 04:03:23;;;;;;;9.05;5.90;;;;;;;-2.84;100.00;96241.41;5003724;28;24444;-79
2022/02/13 04:05:55;;;;;;;8.65;5.50;;;;;;;-2.85;100.00;96243.09;5004710;28;24451;-79
2022/02/13 04:14:05;;;;;;;6.25;5.55;;;;;;;-2.81;100.00;96251.53;5085700;28;24461;-77
2022/02/13 04:37:09;;;;;;;7.30;5.78;;;;;;;-2.73;100.00;96257.44;4875368;29;24447;-77
2022/02/13 04:46:18;;;;;;;10.10;5.53;;;;;;;-2.34;100.00;96247.97;5043233;28;24444;-77
2022/02/13 04:49:31;;;;;;;9.40;6.13;;;;;;;-2.46;100.00;96247.16;5072792;28;24438;-77
2022/02/13 05:02:46;;;;;;;7.13;5.07;;;;;;;-2.33;100.00;96240.34;5048092;28;24525;-77
2022/02/13 05:05:27;;;;;;;7.90;5.32;;;;;;;-2.52;100.00;96239.59;5085164;28;24477;-78
2022/02/13 05:07:59;;;;;;;8.65;5.90;;;;;;;-2.57;100.00;96240.47;5085123;28;24465;-77
2022/02/13 05:10:32;;;;;;;9.30;5.32;;;;;;;-2.61;100.00;96237.09;5085144;28;24425;-77
2022/02/13 05:12:59;;;;;;;8.38;5.45;;;;;;;-2.70;100.00;96229.53;5085531;28;24422;-77
2022/02/13 05:15:25;;;;;;;8.30;5.20;;;;;;;-2.79;100.00;96229.56;5085319;28;24429;-77
2022/02/13 05:17:53;;;;;;;8.55;5.50;;;;;;;-2.83;100.00;96226.19;5085207;28;24429;-77
2022/02/13 05:20:20;;;;;;;6.50;5.28;;;;;;;-2.83;100.00;96222.81;5084801;28;24426;-77
2022/02/13 05:22:46;;;;;;;10.88;5.90;;;;;;;-2.92;100.00;96227.06;5085930;28;24430;-77
2022/02/13 05:25:12;;;;;;;8.30;5.97;;;;;;;-2.92;100.00;96219.47;5085475;28;24460;-77
2022/02/13 05:27:39;;;;;;;10.32;5.50;;;;;;;-2.92;100.00;96224.53;5084638;28;24425;-77
2022/02/13 05:30:07;;;;;;;8.70;5.50;;;;;;;-2.94;100.00;96227.91;5085690;28;24426;-77
2022/02/13 05:32:33;;;;;;;9.00;5.53;;;;;;;-2.93;100.00;96217.78;5086222;28;24433;-77
2022/02/13 05:35:01;;;;;;;9.05;5.63;;;;;;;-2.96;100.00;96216.94;5123252;22;24462;-73
2022/02/13 05:37:30;;;;;;;10.65;5.60;;;;;;;-2.98;100.00;96214.41;5090877;28;24430;-73
2022/02/13 05:39:56;;;;;;;9.88;5.97;;;;;;;-2.96;100.00;96214.41;5090322;28;24418;-73
2022/02/13 05:42:24;;;;;;;7.80;5.87;;;;;;;-2.94;100.00;96210.16;5090713;28;25020;-73
2022/02/13 05:44:50;;;;;;;10.13;5.97;;;;;;;-2.94;100.00;96211.00;5083725;28;25053;-73
2022/02/13 05:47:17;;;;;;;6.70;5.43;;;;;;;-2.82;100.00;96209.28;5070480;28;24476;-73
2022/02/13 05:49:43;;;;;;;8.70;5.68;;;;;;;-2.80;100.00;96210.97;5070751;28;24800;-73
2022/02/13 05:52:11;;;;;;;8.85;5.95;;;;;;;-2.86;100.00;96207.59;5069916;28;24414;-73
2022/02/13 05:54:38;;;;;;;8.80;5.57;;;;;;;-2.83;100.00;96200.84;5070226;28;24958;-73
2022/02/13 05:57:05;;;;;;;8.40;5.77;;;;;;;-2.77;100.00;96195.75;5070463;28;24548;-73
2022/02/13 05:59:31;;;;;;;6.07;5.13;;;;;;;-2.94;100.00;96205.94;5070660;28;24472;-74
2022/02/13 06:01:58;;;;;;;7.40;5.40;;;;;;;-2.93;100.00;96200.03;5070571;28;24418;-73
2022/02/13 06:04:25;;;;;;;7.88;5.43;;;;;;;-2.92;100.00;96194.13;5070189;28;24458;-73
2022/02/13 06:06:54;;;;;;;12.15;5.60;;;;;;;-2.86;100.00;96189.88;5070163;28;24431;-73
2022/02/13 06:09:24;;;;;;;12.75;5.88;;;;;;;-2.90;100.00;96185.66;5051925;28;24435;-73
2022/02/13 06:11:51;;;;;;;9.63;5.75;;;;;;;-2.92;100.00;96178.06;5050183;28;24936;-73
2022/02/13 06:14:18;;;;;;;7.63;5.22;;;;;;;-2.99;100.00;96189.91;5050186;28;24465;-73
2022/02/13 06:16:44;;;;;;;11.20;5.20;;;;;;;-2.98;100.00;96184.00;5049698;28;24959;-73
2022/02/13 06:19:10;;;;;;;10.02;6.05;;;;;;;-2.99;100.00;96181.47;5050204;28;24415;-73
2022/02/13 06:21:37;;;;;;;8.97;5.17;;;;;;;-3.02;100.00;96184.84;5049951;28;24438;-74
2022/02/13 06:24:04;;;;;;;12.38;5.80;;;;;;;-3.04;100.00;96178.97;5048934;28;24435;-73
2022/02/13 06:26:34;;;;;;;6.05;5.18;;;;;;;-3.08;100.00;96176.44;5049001;28;24509;-73
2022/02/13 06:29:01;;;;;;;6.47;5.68;;;;;;;-3.07;100.00;96176.44;5048928;28;24485;-75
2022/02/13 06:31:27;;;;;;;9.57;6.10;;;;;;;-3.07;100.00;96175.59;5048962;28;24427;-75
2022/02/13 06:33:54;;;;;;;12.27;5.50;;;;;;;-3.07;100.00;96168.84;5056927;28;24426;-74
2022/02/13 06:36:20;;;;;;;7.03;5.60;;;;;;;-2.99;100.00;96172.19;5065838;28;24546;-76
2022/02/13 06:38:47;;;;;;;7.30;5.32;;;;;;;-2.87;100.00;96178.06;5067643;28;24426;-73
2022/02/13 06:41:13;;;;;;;8.40;5.35;;;;;;;-2.87;100.00;96172.97;5070067;28;24438;-74
2022/02/13 06:43:41;;;;;;;8.27;5.93;;;;;;;-2.80;100.00;96172.09;5070239;28;24441;-74
2022/02/13 06:46:07;;;;;;;6.95;5.10;;;;;;;-2.73;100.00;96173.78;5064600;28;24512;-74
2022/02/13 06:48:35;;;;;;;12.70;5.70;;;;;;;-2.79;100.00;96177.16;5049743;28;24486;-74
2022/02/13 06:51:02;;;;;;;11.57;7.72;;;;;;;-2.71;100.00;96172.06;5064673;28;24780;-73
2022/02/13 06:53:28;;;;;;;18.70;10.67;;;;;;;-2.63;100.00;96177.94;5052837;28;24431;-73
2022/02/13 06:55:55;;;;;;;10.48;8.60;;;;;;;-2.47;100.00;96181.25;5056174;28;24484;-74
2022/02/13 06:58:22;;;;;;;12.27;8.98;;;;;;;-2.47;100.00;96171.09;5067367;28;24484;-74
2022/02/13 07:00:49;;;;;;;11.17;9.03;;;;;;;-2.53;100.00;96173.66;5064215;28;24454;-74
2022/02/13 07:03:16;;;;;;;11.38;7.65;;;;;;;-2.63;100.00;96183.03;5063304;28;24431;-74
2022/02/13 07:05:42;;;;;;;10.82;7.70;;;;;;;-2.68;100.00;96175.41;5070526;28;24462;-74
2022/02/13 07:08:09;;;;;;;10.50;6.97;;;;;;;-2.72;100.00;96178.81;5057634;28;24530;-73
2022/02/13 07:10:36;;;;;;;17.77;9.45;;;;;;;-2.67;100.00;96178.78;5069923;28;24462;-74
2022/02/13 07:13:03;;;;;;;10.40;7.45;;;;;;;-2.51;100.00;96180.41;5072455;28;24466;-74
2022/02/13 07:15:30;;;;;;;11.52;8.07;;;;;;;-2.40;100.00;96176.97;5072764;28;24979;-75
2022/02/13 07:17:58;;;;;;;13.00;8.30;;;;;;;-2.30;100.00;96169.31;5072041;28;24442;-73
2022/02/13 07:20:25;;;;;;;19.05;11.48;;;;;;;-2.19;100.00;96171.75;5063163;28;24435;-74
2022/02/13 07:22:51;;;;;;;16.23;9.82;;;;;;;-2.08;100.00;96177.59;5069994;28;24437;-74
2022/02/13 07:25:17;;;;;;;14.70;9.48;;;;;;;-2.00;100.00;96165.72;5072279;28;24463;-74
2022/02/13 07:27:44;;;;;;;12.35;8.93;;;;;;;-1.91;100.00;96172.41;5072712;28;24428;-73
2022/02/13 07:30:13;;;;;;;11.88;8.05;;;;;;;-1.70;100.00;96179.03;5072622;28;24415;-74
2022/02/13 07:32:39;;;;;;;8.23;6.05;;;;;;;-1.62;100.00;96171.34;5072733;28;24434;-75
2022/02/13 07:35:08;;;;;;;6.35;5.47;;;;;;;-1.60;100.00;96169.59;5072703;28;24434;-74
2022/02/13 07:37:35;;;;;;;9.27;6.28;;;;;;;-1.61;100.00;96171.31;5056269;28;24440;-74
2022/02/13 07:40:01;;;;;;;8.40;6.72;;;;;;;-1.44;100.00;96173.72;5066776;28;24531;-74
2022/02/13 07:42:28;;;;;;;9.18;6.40;;;;;;;-1.31;100.00;96175.25;5057845;28;24435;-72
2022/02/13 07:44:54;;;;;;;14.75;9.13;;;;;;;-1.17;100.00;96166.66;5052548;28;24852;-73
2022/02/13 07:47:21;;;;;;;18.20;12.90;;;;;;;-1.08;100.00;96157.22;5052311;28;24900;-73
2022/02/13 07:49:47;;;;;;;7.88;6.72;;;;;;;-1.00;100.00;96165.63;5065014;28;25044;-72
2022/02/13 07:52:15;;;;;;;7.20;6.50;;;;;;;-0.69;100.00;96164.41;5072660;28;24427;-73
2022/02/13 07:54:42;;;;;;;7.10;5.93;;;;;;;-0.64;100.00;96157.56;5062158;28;24442;-73
2022/02/13 07:57:08;;;;;;;8.77;6.35;;;;;;;-0.23;100.00;96151.91;5072010;28;24959;-72
2022/02/13 07:59:35;;;;;;;8.25;6.75;;;;;;;-0.01;100.00;96160.06;5072134;28;24411;-73
2022/02/13 08:02:02;;;;;;;9.98;8.27;;;;;;;-0.02;100.00;96159.22;5071672;28;24508;-72
2022/02/13 08:04:28;;;;;;;8.50;6.50;;;;;;;0.14;100.00;96151.34;5071509;28;24461;-72
2022/02/13 08:06:55;;;;;;;9.98;7.05;;;;;;;0.28;100.00;96146.88;5071597;28;24458;-76
2022/02/13 08:09:23;;;;;;;7.80;6.20;;;;;;;0.66;100.00;96150.47;5071776;28;24435;-75
2022/02/13 08:11:49;;;;;;;9.98;6.95;;;;;;;0.73;100.00;96149.47;5071980;28;24426;-74
2022/02/13 08:14:16;;;;;;;7.20;6.50;;;;;;;1.14;100.00;96145.31;5064283;28;24431;-74
2022/02/13 08:16:43;;;;;;;9.75;7.25;;;;;;;0.90;100.00;96150.03;5055234;28;24439;-73
2022/02/13 08:19:10;;;;;;;11.50;6.13;;;;;;;0.64;100.00;96155.59;5066943;28;24447;-75
2022/02/13 08:21:36;;;;;;;10.07;7.20;;;;;;;0.50;100.00;96149.91;5071406;28;24431;-78
2022/02/13 08:24:03;;;;;;;8.87;6.63;;;;;;;0.44;100.00;96155.09;5069711;28;24443;-74
2022/02/13 08:26:31;;;;;;;7.53;6.00;;;;;;;0.33;100.00;96149.34;5071317;28;24486;-75
2022/02/13 08:28:57;;;;;;;12.55;7.05;;;;;;;0.47;100.00;96152.50;5070892;28;25029;-75
2022/02/13 08:31:24;;;;;;;13.10;7.13;;;;;;;0.77;100.00;96150.25;5069174;28;24435;-75
2022/02/13 08:33:50;;;;;;;9.73;6.75;;;;;;;0.96;100.00;96151.59;5071780;28;24415;-75
2022/02/13 08:36:16;;;;;;;8.98;6.82;;;;;;;0.98;100.00;96146.47;5070625;28;24824;-73
2022/02/13 08:38:43;;;;;;;10.35;7.25;;;;;;;1.01;100.00;96148.97;5071379;28;24812;-74
2022/02/13 08:41:09;;;;;;;12.35;7.10;;;;;;;1.04;100.00;96139.56;5065161;28;24968;-74
2022/02/13 08:43:38;;;;;;;7.63;6.00;;;;;;;1.00;100.00;96144.72;5051427;28;24959;-74
2022/02/13 08:46:04;;;;;;;8.65;6.45;;;;;;;1.00;100.00;96140.47;5064146;28;24520;-75
2022/02/13 08:48:31;;;;;;;11.85;7.18;;;;;;;0.99;100.00;96141.34;5071283;28;24473;-74
2022/02/13 08:50:57;;;;;;;7.43;6.30;;;;;;;1.26;100.00;96142.53;5061930;28;24508;-74
2022/02/13 08:53:24;;;;;;;7.28;6.25;;;;;;;1.38;100.00;96131.22;5064049;28;24991;-74
2022/02/13 08:55:50;;;;;;;9.75;6.75;;;;;;;1.70;100.00;96139.00;5069580;28;24427;-74
2022/02/13 08:58:17;;;;;;;6.47;5.80;;;;;;;2.14;100.00;96132.03;5070310;28;24831;-75
2022/02/13 09:00:44;;;;;;;9.23;6.13;;;;;;;2.26;100.00;96124.94;5070421;28;25025;-76
2022/02/13 09:03:11;;;;;;;6.78;6.07;;;;;;;2.42;99.28;96126.25;5070100;28;24431;-74
2022/02/13 09:05:37;;;;;;;8.40;6.88;;;;;;;2.57;99.29;96128.44;5068867;28;24454;-76
2022/02/13 09:08:05;;;;;;;10.35;6.70;;;;;;;2.57;99.28;96130.16;5051280;28;24430;-75
2022/02/13 09:10:32;;;;;;;10.95;7.10;;;;;;;2.65;99.46;96126.50;5054999;28;24500;-75
2022/02/13 09:12:58;;;;;;;11.75;6.90;;;;;;;2.37;99.39;96123.84;5068952;28;24846;-74
2022/02/13 09:15:26;;;;;;;10.40;7.75;;;;;;;2.74;98.62;96117.75;5070161;28;24442;-75
2022/02/13 09:17:53;;;;;;;13.48;10.82;;;;;;;2.71;96.58;96117.84;5069841;28;24484;-74
2022/02/13 09:20:20;;;;;;;11.82;7.40;;;;;;;2.77;98.36;96119.38;5064863;28;24439;-74
2022/02/13 09:22:46;;;;;;;11.40;7.70;;;;;;;2.73;96.26;96120.34;5054608;28;24430;-74
2022/02/13 09:25:13;;;;;;;10.90;8.30;;;;;;;2.75;97.97;96110.94;5068254;28;24496;-74
2022/02/13 09:27:39;;;;;;;20.13;13.20;;;;;;;2.91;97.63;96114.75;5069736;28;24421;-74
2022/02/13 09:30:07;;;;;;;11.93;7.75;;;;;;;2.92;95.94;96109.56;5070895;28;24422;-75
2022/02/13 09:32:33;;;;;;;12.63;8.13;;;;;;;3.01;96.59;96095.72;5068585;28;24431;-74
2022/02/13 09:35:01;;;;;;;12.60;7.40;;;;;;;3.14;96.07;96089.34;5067852;28;24442;-74
2022/02/13 09:37:28;;;;;;;9.98;7.38;;;;;;;3.24;96.02;96091.66;5069268;28;24418;-74
2022/02/13 09:39:54;;;;;;;13.82;10.18;;;;;;;3.54;94.83;96083.06;5068852;28;24438;-73
2022/02/13 09:42:21;;;;;;;13.05;8.43;;;;;;;3.79;94.08;96078.03;5069518;28;24435;-75
2022/02/13 09:44:48;;;;;;;10.68;7.47;;;;;;;4.01;93.45;96075.63;5052768;28;24435;-75
2022/02/13 09:47:15;;;;;;;13.18;8.75;;;;;;;3.81;93.87;96065.16;5063362;28;24451;-75
2022/02/13 09:49:42;;;;;;;12.75;8.38;;;;;;;4.25;92.42;96061.16;5069928;28;24473;-76
2022/02/13 09:52:11;;;;;;;10.38;7.05;;;;;;;4.51;89.18;96060.28;5070540;28;24423;-76
2022/02/13 09:54:38;;;;;;;17.55;12.05;;;;;;;4.44;88.90;96057.97;5065627;28;24505;-76
2022/02/13 09:59:54;;;;;;;12.02;7.80;;;;;;;4.54;89.92;96055.06;5070601;28;24494;-75
2022/02/13 10:02:34;;;;;;;12.02;7.45;;;;;;;5.01;87.91;96054.28;5069453;28;24453;-75
2022/02/13 10:05:01;;;;;;;9.30;7.10;;;;;;;5.13;88.84;96058.13;5066216;28;24983;-75
2022/02/13 10:07:32;;;;;;;10.75;7.88;;;;;;;4.85;87.18;96051.41;5070076;28;24800;-75
2022/02/13 10:09:59;;;;;;;9.13;7.50;;;;;;;5.00;88.49;96060.28;5069388;28;24496;-77
2022/02/13 10:12:30;;;;;;;11.88;8.15;;;;;;;5.10;86.64;96057.31;5050296;28;24435;-77
2022/02/13 10:14:57;;;;;;;10.82;8.32;;;;;;;5.22;87.11;96056.03;5057323;28;24518;-75
2022/02/13 10:17:25;;;;;;;13.98;9.23;;;;;;;5.47;85.20;96050.00;5055172;28;24485;-75
2022/02/13 10:19:53;;;;;;;12.27;8.20;;;;;;;5.30;85.74;96056.63;5061102;28;24462;-75
2022/02/13 10:22:33;;;;;;;13.25;7.78;;;;;;;5.43;86.75;96041.56;5069884;28;24465;-75
2022/02/13 10:25:14;;;;;;;12.70;8.25;;;;;;;5.72;84.13;96032.72;5056164;28;24520;-75
2022/02/13 10:27:46;;;;;;;12.52;7.78;;;;;;;5.36;84.72;96031.59;5066547;28;24511;-76
2022/02/13 10:30:12;;;;;;;11.02;8.00;;;;;;;5.65;84.64;96022.75;5070081;28;24569;-76
2022/02/13 10:32:41;;;;;;;10.55;7.53;;;;;;;5.59;82.63;96029.78;5068036;28;24985;-76
2022/02/13 10:35:10;;;;;;;9.73;7.50;;;;;;;5.47;84.07;96017.44;5049767;28;24427;-76
2022/02/13 10:37:41;;;;;;;11.38;7.93;;;;;;;5.71;84.37;96018.22;5059124;28;24827;-75
2022/02/13 10:40:09;;;;;;;9.02;7.80;;;;;;;5.94;82.82;96017.31;5054774;28;24435;-75
2022/02/13 10:42:36;;;;;;;8.80;6.80;;;;;;;6.33;81.01;96011.41;5070900;28;24805;-76
2022/02/13 10:45:23;;;;;;;11.57;7.28;;;;;;;6.13;81.79;96001.97;5066142;28;24474;-76
2022/02/13 10:47:52;;;;;;;9.82;7.18;;;;;;;6.19;80.60;95996.59;5068964;28;24980;-75
2022/02/13 10:50:20;;;;;;;8.75;6.75;;;;;;;6.10;81.32;95996.94;5073171;28;24991;-75
2022/02/13 10:52:49;;;;;;;9.55;7.13;;;;;;;6.22;81.17;95990.44;5071246;28;24509;-75
2022/02/13 10:55:17;;;;;;;8.32;6.45;;;;;;;6.12;81.55;95990.03;5057713;28;25006;-75
2022/02/13 10:57:44;;;;;;;9.50;6.95;;;;;;;6.18;81.72;95987.16;5069550;28;24435;-75
2022/02/13 11:00:11;;;;;;;10.98;7.32;;;;;;;6.18;82.23;95983.78;5073264;28;24522;-75
2022/02/13 11:02:39;;;;;;;8.73;6.90;;;;;;;6.25;82.00;95972.31;5071307;28;24435;-75
2022/02/13 11:05:07;;;;;;;9.30;6.93;;;;;;;6.31;81.58;95966.94;5053353;28;24509;-75
2022/02/13 11:07:35;;;;;;;9.35;7.38;;;;;;;6.26;81.39;95961.13;5072953;28;24812;-75
2022/02/13 11:10:05;;;;;;;14.82;7.10;;;;;;;6.23;80.98;95953.53;5055309;28;24453;-75
2022/02/13 11:12:32;;;;;;;10.13;7.00;;;;;;;6.33;80.84;95941.97;5053360;28;24435;-75
2022/02/13 11:15:15;;;;;;;12.80;6.68;;;;;;;6.43;80.25;95943.25;5070502;28;24792;-75
2022/02/13 11:17:43;;;;;;;9.95;6.65;;;;;;;6.48;80.28;95938.72;5071975;28;24455;-75
2022/02/13 11:20:12;;;;;;;9.10;6.38;;;;;;;6.40;80.01;95939.97;5057998;28;24435;-75
2022/02/13 11:22:41;;;;;;;8.97;6.57;;;;;;;6.54;78.70;95925.59;5072162;28;24457;-76
2022/02/13 11:25:10;;;;;;;9.65;6.50;;;;;;;7.01;78.49;95938.06;5072063;28;25056;-75
2022/02/13 11:27:53;;;;;;;11.23;6.32;;;;;;;6.99;76.62;95919.25;5072128;28;24820;-75
2022/02/13 11:30:40;;;;;;;12.50;6.72;;;;;;;7.35;76.00;95917.63;5070427;28;24987;-76
2022/02/13 11:33:09;;;;;;;7.20;5.63;;;;;;;7.70;74.27;95909.00;5057572;28;24437;-75
2022/02/13 11:35:54;;;;;;;9.07;6.07;;;;;;;7.77;73.00;95909.53;5066101;28;24440;-75
2022/02/13 11:38:53;;;;;;;10.40;5.97;;;;;;;7.79;72.19;95894.84;5052663;28;24430;-75
2022/02/13 11:41:41;;;;;;;10.15;5.68;;;;;;;7.70;73.11;95887.53;5061374;28;24803;-75
2022/02/13 11:44:08;;;;;;;9.45;5.63;;;;;;;7.70;73.63;95892.69;5070281;28;24435;-75
2022/02/13 11:46:57;;;;;;;9.10;5.70;;;;;;;7.74;72.46;95882.16;5065728;28;24483;-75
2022/02/13 11:49:24;;;;;;;8.32;5.43;;;;;;;7.62;72.77;95877.63;5065507;28;24458;-75
2022/02/13 11:51:59;;;;;;;8.80;5.55;;;;;;;7.51;73.09;95875.56;5058171;28;24979;-76
2022/02/13 11:54:54;;;;;;;7.82;5.63;;;;;;;7.76;72.01;95864.03;5067695;28;24446;-76
2022/02/13 11:57:25;;;;;;;12.80;5.35;;;;;;;7.83;72.00;95862.00;5024381;28;21143;-75
2022/02/13 12:00:07;;;;;;;9.70;5.20;;;;;;;7.59;73.53;95857.13;5071189;28;20764;-76
2022/02/13 12:02:44;;;;;;;9.68;5.50;;;;;;;8.06;71.27;95855.66;5066627;28;20769;-75
2022/02/13 12:05:22;;;;;;;11.48;5.13;;;;;;;7.87;71.27;95848.03;5064894;28;20764;-76
2022/02/13 12:07:58;;;;;;;11.60;6.15;;;;;;;7.95;71.62;95843.31;5072198;28;20656;-75
2022/02/13 12:10:29;;;;;;;11.63;5.23;;;;;;;7.77;71.82;95837.34;5072191;28;24469;-75
2022/02/13 12:13:06;;;;;;;11.85;5.50;;;;;;;7.89;73.24;95828.97;5051965;28;20720;-75
2022/02/13 12:15:33;;;;;;;6.30;4.75;;;;;;;7.95;70.48;95823.50;5068341;28;24487;-75
2022/02/13 12:18:10;;;;;;;8.75;5.53;;;;;;;7.81;71.54;95817.41;5052203;28;24477;-75
2022/02/13 12:20:37;;;;;;;9.93;4.88;;;;;;;8.00;72.41;95808.63;5059816;28;21347;-75
2022/02/13 12:23:05;;;;;;;19.30;6.00;;;;;;;7.99;70.46;95812.13;5062818;28;24431;-75
2022/02/13 12:25:32;;;;;;;9.13;5.65;;;;;;;8.25;70.00;95804.78;5067190;28;20817;-75
2022/02/13 12:27:58;;;;;;;6.53;4.57;;;;;;;8.60;68.41;95804.66;5071654;28;24509;-75
2022/02/13 12:30:27;;;;;;;6.93;4.63;;;;;;;8.85;70.79;95794.63;5072105;28;24830;-75
2022/02/13 12:32:57;;;;;;;10.95;4.93;;;;;;;8.61;68.48;95796.00;5053923;28;20771;-75
2022/02/13 12:35:27;;;;;;;7.35;4.88;;;;;;;8.81;69.32;95782.81;5068189;28;24531;-75
2022/02/13 12:37:55;;;;;;;7.10;4.72;;;;;;;8.72;69.17;95775.59;5071654;28;24451;-75
2022/02/13 12:40:25;;;;;;;9.93;4.32;;;;;;;8.58;68.53;95772.94;5064247;28;24442;-75
2022/02/13 12:42:53;;;;;;;9.88;4.53;;;;;;;8.65;68.88;95766.53;5054201;28;24471;-75
2022/02/13 12:45:22;;;;;;;5.80;4.30;;;;;;;8.83;67.35;95762.91;5071055;28;24529;-75
2022/02/13 12:47:53;;;;;;;9.70;4.93;;;;;;;8.79;67.60;95764.00;5070872;28;24457;-75
2022/02/13 12:50:21;;;;;;;9.45;4.25;;;;;;;8.83;68.01;95765.50;5071350;28;20789;-75
2022/02/13 12:52:48;;;;;;;8.18;4.43;;;;;;;8.68;67.65;95761.19;5063435;28;20823;-76
2022/02/13 12:55:16;;;;;;;8.40;4.55;;;;;;;8.63;67.07;95756.25;5070339;28;25029;-75
2022/02/13 12:57:48;;;;;;;8.43;4.17;;;;;;;8.92;66.38;95746.88;5070914;28;20834;-75
2022/02/13 13:00:17;;;;;;;7.15;3.92;;;;;;;8.80;67.52;95746.75;5066266;28;24501;-76
2022/02/13 13:02:53;;;;;;;4.85;3.03;;;;;;;8.90;66.79;95733.25;5065559;28;20806;-75
2022/02/13 13:05:21;;;;;;;6.18;3.55;;;;;;;8.89;66.00;95726.41;5051274;28;20737;-75
2022/02/13 13:07:48;;;;;;;7.68;3.35;;;;;;;9.20;64.49;95722.91;5050356;28;24435;-76
2022/02/13 13:10:24;;;;;;;10.52;3.40;;;;;;;9.38;63.63;95723.59;5066988;28;20776;-75
2022/02/13 13:13:06;;;;;;;6.30;3.08;;;;;;;9.04;65.91;95723.88;5067896;28;20803;-74
2022/02/13 13:15:33;;;;;;;5.57;3.08;;;;;;;8.99;65.49;95710.38;5063312;28;20750;-74
2022/02/13 13:18:01;;;;;;;5.93;2.88;;;;;;;8.94;62.24;95698.56;5070520;28;24442;-75
2022/02/13 13:20:29;;;;;;;4.30;2.78;;;;;;;9.11;61.93;95694.16;5070444;28;20819;-75
2022/02/13 13:23:16;;;;;;;5.00;2.63;;;;;;;9.08;62.02;95689.19;5068382;28;24437;-75
2022/02/13 13:25:45;;;;;;;5.93;2.60;;;;;;;9.02;60.38;95682.63;5066943;28;20685;-74
2022/02/13 13:28:13;;;;;;;7.28;2.40;;;;;;;9.00;60.51;95679.28;5070378;28;20778;-75
2022/02/13 13:30:42;;;;;;;6.18;2.17;;;;;;;9.19;59.75;95676.47;5069116;28;21280;-75
2022/02/13 13:33:11;;;;;;;6.60;2.60;;;;;;;9.50;58.71;95669.50;5057187;28;20784;-74
2022/02/13 13:35:39;;;;;;;3.70;2.22;;;;;;;9.32;59.14;95669.66;5058736;28;20766;-74
2022/02/13 13:38:08;;;;;;;6.70;2.25;;;;;;;9.39;59.42;95668.38;5061088;28;20785;-74
2022/02/13 13:40:37;;;;;;;6.57;2.47;;;;;;;9.41;59.72;95663.09;5058047;28;20846;-74
2022/02/13 13:43:09;;;;;;;5.35;2.50;;;;;;;9.35;60.18;95663.50;5057408;28;20757;-74
2022/02/13 13:45:39;;;;;;;8.98;2.90;;;;;;;9.28;62.13;95659.59;5068037;28;20821;-74
2022/02/13 13:48:11;;;;;;;5.35;2.78;;;;;;;9.77;59.06;95652.28;5062756;28;20737;-74